sensor_id;sensor_type;location;lat;lon;timestamp;temperature;humidity
18101;DHT22;9177;49.156;8.142;2022-07-06T00:02:17;25.40;92.90
18101;DHT22;9177;49.156;8.142;2022-07-06T00:04:45;25.40;92.90
18101;DHT22;9177;49.156;8.142;2022-07-06T00:07:12;25.40;92.90
18101;DHT22;9177;49.156;8.142;2022-07-06T00:09:40;25.40;92.90
18101;DHT22;9177;49.156;8.142;2022-07-06T00:12:09;25.40;92.90
18101;DHT22;9177;49.156;8.142;2022-07-06T00:14:39;25.40;93.00
18101;DHT22;9177;49.156;8.142;2022-07-06T00:17:06;25.40;93.00
18101;DHT22;9177;49.156;8.142;2022-07-06T00:19:34;25.40;93.00
18101;DHT22;9177;49.156;8.142;2022-07-06T00:22:05;25.40;93.00
18101;DHT22;9177;49.156;8.142;2022-07-06T00:24:33;25.40;93.00
18101;DHT22;9177;49.156;8.142;2022-07-06T00:27:01;25.40;93.00
18101;DHT22;9177;49.156;8.142;2022-07-06T00:29:29;25.40;93.00
18101;DHT22;9177;49.156;8.142;2022-07-06T00:31:58;25.40;93.10
18101;DHT22;9177;49.156;8.142;2022-07-06T00:34:26;25.40;93.10
18101;DHT22;9177;49.156;8.142;2022-07-06T00:36:54;25.40;93.10
18101;DHT22;9177;49.156;8.142;2022-07-06T00:39:24;25.40;93.10
18101;DHT22;9177;49.156;8.142;2022-07-06T00:41:55;25.40;93.10
18101;DHT22;9177;49.156;8.142;2022-07-06T00:44:23;25.40;93.10
18101;DHT22;9177;49.156;8.142;2022-07-06T00:46:51;25.40;93.10
18101;DHT22;9177;49.156;8.142;2022-07-06T00:49:21;25.40;93.20
18101;DHT22;9177;49.156;8.142;2022-07-06T00:52:06;25.40;93.20
18101;DHT22;9177;49.156;8.142;2022-07-06T00:54:34;25.40;93.60
18101;DHT22;9177;49.156;8.142;2022-07-06T00:57:03;25.40;93.20
18101;DHT22;9177;49.156;8.142;2022-07-06T00:59:32;25.40;93.20
18101;DHT22;9177;49.156;8.142;2022-07-06T01:01:59;25.40;93.20
18101;DHT22;9177;49.156;8.142;2022-07-06T01:04:28;25.40;93.20
18101;DHT22;9177;49.156;8.142;2022-07-06T01:06:57;25.40;93.20
18101;DHT22;9177;49.156;8.142;2022-07-06T01:09:25;25.40;93.30
18101;DHT22;9177;49.156;8.142;2022-07-06T01:11:53;25.40;93.30
18101;DHT22;9177;49.156;8.142;2022-07-06T01:14:21;25.40;93.30
18101;DHT22;9177;49.156;8.142;2022-07-06T01:16:50;25.30;93.30
18101;DHT22;9177;49.156;8.142;2022-07-06T01:19:32;25.40;93.30
18101;DHT22;9177;49.156;8.142;2022-07-06T01:22:02;25.30;93.30
18101;DHT22;9177;49.156;8.142;2022-07-06T01:24:30;25.30;93.30
18101;DHT22;9177;49.156;8.142;2022-07-06T01:26:58;25.30;93.30
18101;DHT22;9177;49.156;8.142;2022-07-06T01:29:26;25.30;93.30
18101;DHT22;9177;49.156;8.142;2022-07-06T01:31:54;25.30;93.30
18101;DHT22;9177;49.156;8.142;2022-07-06T01:34:23;25.30;93.30
18101;DHT22;9177;49.156;8.142;2022-07-06T01:36:59;25.30;93.40
18101;DHT22;9177;49.156;8.142;2022-07-06T01:39:30;25.30;93.40
18101;DHT22;9177;49.156;8.142;2022-07-06T01:42:00;25.30;93.40
18101;DHT22;9177;49.156;8.142;2022-07-06T01:44:29;25.30;93.40
18101;DHT22;9177;49.156;8.142;2022-07-06T01:46:57;25.30;93.40
18101;DHT22;9177;49.156;8.142;2022-07-06T01:49:24;25.30;93.50
18101;DHT22;9177;49.156;8.142;2022-07-06T01:51:52;25.30;93.40
18101;DHT22;9177;49.156;8.142;2022-07-06T01:54:22;25.30;93.50
18101;DHT22;9177;49.156;8.142;2022-07-06T01:56:52;25.30;93.50
18101;DHT22;9177;49.156;8.142;2022-07-06T01:59:20;25.30;93.50
18101;DHT22;9177;49.156;8.142;2022-07-06T02:01:48;25.30;93.50
18101;DHT22;9177;49.156;8.142;2022-07-06T02:04:16;25.30;93.50
18101;DHT22;9177;49.156;8.142;2022-07-06T02:06:44;25.30;93.50
18101;DHT22;9177;49.156;8.142;2022-07-06T02:09:12;25.30;93.50
18101;DHT22;9177;49.156;8.142;2022-07-06T02:11:39;25.30;93.50
18101;DHT22;9177;49.156;8.142;2022-07-06T02:14:09;25.30;93.50
18101;DHT22;9177;49.156;8.142;2022-07-06T02:16:36;25.30;93.50
18101;DHT22;9177;49.156;8.142;2022-07-06T02:19:04;25.30;93.50
18101;DHT22;9177;49.156;8.142;2022-07-06T02:21:33;25.30;93.60
18101;DHT22;9177;49.156;8.142;2022-07-06T02:24:00;25.30;93.60
18101;DHT22;9177;49.156;8.142;2022-07-06T02:26:28;25.30;93.60
18101;DHT22;9177;49.156;8.142;2022-07-06T02:28:57;25.30;93.60
18101;DHT22;9177;49.156;8.142;2022-07-06T02:31:27;25.30;93.60
18101;DHT22;9177;49.156;8.142;2022-07-06T02:33:54;25.30;93.60
18101;DHT22;9177;49.156;8.142;2022-07-06T02:36:22;25.30;93.60
18101;DHT22;9177;49.156;8.142;2022-07-06T02:38:51;25.30;93.60
18101;DHT22;9177;49.156;8.142;2022-07-06T02:41:19;25.30;93.60
18101;DHT22;9177;49.156;8.142;2022-07-06T02:43:49;25.30;93.60
18101;DHT22;9177;49.156;8.142;2022-07-06T02:46:17;25.20;93.60
18101;DHT22;9177;49.156;8.142;2022-07-06T02:48:47;25.20;93.60
18101;DHT22;9177;49.156;8.142;2022-07-06T02:51:15;25.20;93.60
18101;DHT22;9177;49.156;8.142;2022-07-06T02:53:44;25.20;93.60
18101;DHT22;9177;49.156;8.142;2022-07-06T02:56:11;25.20;93.60
18101;DHT22;9177;49.156;8.142;2022-07-06T02:58:39;25.20;93.70
18101;DHT22;9177;49.156;8.142;2022-07-06T03:01:07;25.20;93.70
18101;DHT22;9177;49.156;8.142;2022-07-06T03:03:35;25.20;93.70
18101;DHT22;9177;49.156;8.142;2022-07-06T03:06:05;25.20;93.70
18101;DHT22;9177;49.156;8.142;2022-07-06T03:08:33;25.20;93.70
18101;DHT22;9177;49.156;8.142;2022-07-06T03:11:00;25.20;93.70
18101;DHT22;9177;49.156;8.142;2022-07-06T03:13:28;25.20;93.70
18101;DHT22;9177;49.156;8.142;2022-07-06T03:15:57;25.20;93.70
18101;DHT22;9177;49.156;8.142;2022-07-06T03:18:25;25.20;93.70
18101;DHT22;9177;49.156;8.142;2022-07-06T03:20:55;25.20;93.70
18101;DHT22;9177;49.156;8.142;2022-07-06T03:23:27;25.20;93.80
18101;DHT22;9177;49.156;8.142;2022-07-06T03:25:54;25.20;93.70
18101;DHT22;9177;49.156;8.142;2022-07-06T03:28:22;25.20;93.80
18101;DHT22;9177;49.156;8.142;2022-07-06T03:30:50;25.20;93.80
18101;DHT22;9177;49.156;8.142;2022-07-06T03:33:18;25.20;93.80
18101;DHT22;9177;49.156;8.142;2022-07-06T03:35:46;25.20;93.80
18101;DHT22;9177;49.156;8.142;2022-07-06T03:38:13;25.20;93.80
18101;DHT22;9177;49.156;8.142;2022-07-06T03:40:42;25.20;93.80
18101;DHT22;9177;49.156;8.142;2022-07-06T03:43:10;25.20;93.80
18101;DHT22;9177;49.156;8.142;2022-07-06T03:45:39;25.20;93.80
18101;DHT22;9177;49.156;8.142;2022-07-06T03:48:07;25.20;93.80
18101;DHT22;9177;49.156;8.142;2022-07-06T03:50:35;25.20;93.80
18101;DHT22;9177;49.156;8.142;2022-07-06T03:53:03;25.20;93.80
18101;DHT22;9177;49.156;8.142;2022-07-06T03:55:31;25.20;93.80
18101;DHT22;9177;49.156;8.142;2022-07-06T03:58:00;25.20;93.80
18101;DHT22;9177;49.156;8.142;2022-07-06T04:00:28;25.20;93.80
18101;DHT22;9177;49.156;8.142;2022-07-06T04:02:56;25.20;93.80
18101;DHT22;9177;49.156;8.142;2022-07-06T04:05:24;25.20;93.90
18101;DHT22;9177;49.156;8.142;2022-07-06T04:07:52;25.20;93.90
18101;DHT22;9177;49.156;8.142;2022-07-06T04:10:21;25.20;93.90
18101;DHT22;9177;49.156;8.142;2022-07-06T04:12:48;25.20;93.90
18101;DHT22;9177;49.156;8.142;2022-07-06T04:15:18;25.20;93.90
18101;DHT22;9177;49.156;8.142;2022-07-06T04:17:46;25.20;93.90
18101;DHT22;9177;49.156;8.142;2022-07-06T04:20:20;25.20;93.90
18101;DHT22;9177;49.156;8.142;2022-07-06T04:22:48;25.20;93.90
18101;DHT22;9177;49.156;8.142;2022-07-06T04:25:16;25.20;93.90
18101;DHT22;9177;49.156;8.142;2022-07-06T04:27:43;25.20;93.90
18101;DHT22;9177;49.156;8.142;2022-07-06T04:30:11;25.20;93.90
18101;DHT22;9177;49.156;8.142;2022-07-06T04:32:41;25.20;93.90
18101;DHT22;9177;49.156;8.142;2022-07-06T04:35:09;25.20;94.00
18101;DHT22;9177;49.156;8.142;2022-07-06T04:37:37;25.20;94.00
18101;DHT22;9177;49.156;8.142;2022-07-06T04:40:05;25.20;94.00
18101;DHT22;9177;49.156;8.142;2022-07-06T04:42:37;25.20;94.00
18101;DHT22;9177;49.156;8.142;2022-07-06T04:45:11;25.20;94.00
18101;DHT22;9177;49.156;8.142;2022-07-06T04:47:41;25.20;94.00
18101;DHT22;9177;49.156;8.142;2022-07-06T04:50:10;25.20;94.00
18101;DHT22;9177;49.156;8.142;2022-07-06T04:52:37;25.20;94.00
18101;DHT22;9177;49.156;8.142;2022-07-06T04:55:05;25.20;94.00
18101;DHT22;9177;49.156;8.142;2022-07-06T04:57:35;25.20;94.00
18101;DHT22;9177;49.156;8.142;2022-07-06T05:00:04;25.20;94.00
18101;DHT22;9177;49.156;8.142;2022-07-06T05:02:32;25.20;94.00
18101;DHT22;9177;49.156;8.142;2022-07-06T05:05:01;25.20;94.00
18101;DHT22;9177;49.156;8.142;2022-07-06T05:07:29;25.20;94.00
18101;DHT22;9177;49.156;8.142;2022-07-06T05:09:59;25.20;94.00
18101;DHT22;9177;49.156;8.142;2022-07-06T05:12:27;25.20;94.00
18101;DHT22;9177;49.156;8.142;2022-07-06T05:14:54;25.20;94.00
18101;DHT22;9177;49.156;8.142;2022-07-06T05:17:22;25.20;94.10
18101;DHT22;9177;49.156;8.142;2022-07-06T05:19:49;25.20;94.00
18101;DHT22;9177;49.156;8.142;2022-07-06T05:22:19;25.20;94.00
18101;DHT22;9177;49.156;8.142;2022-07-06T05:24:46;25.20;94.00
18101;DHT22;9177;49.156;8.142;2022-07-06T05:27:14;25.20;94.10
18101;DHT22;9177;49.156;8.142;2022-07-06T05:29:42;25.20;94.10
18101;DHT22;9177;49.156;8.142;2022-07-06T05:32:09;25.20;94.10
18101;DHT22;9177;49.156;8.142;2022-07-06T05:34:49;25.20;94.10
18101;DHT22;9177;49.156;8.142;2022-07-06T05:37:18;25.20;94.10
18101;DHT22;9177;49.156;8.142;2022-07-06T05:39:53;25.20;94.10
18101;DHT22;9177;49.156;8.142;2022-07-06T05:42:25;25.20;94.10
18101;DHT22;9177;49.156;8.142;2022-07-06T05:44:55;25.20;94.10
18101;DHT22;9177;49.156;8.142;2022-07-06T05:47:23;25.20;94.10
18101;DHT22;9177;49.156;8.142;2022-07-06T05:50:08;25.20;94.10
18101;DHT22;9177;49.156;8.142;2022-07-06T05:52:55;25.20;94.10
18101;DHT22;9177;49.156;8.142;2022-07-06T05:55:24;25.20;94.10
18101;DHT22;9177;49.156;8.142;2022-07-06T05:57:52;25.20;94.20
18101;DHT22;9177;49.156;8.142;2022-07-06T06:00:22;25.20;94.20
18101;DHT22;9177;49.156;8.142;2022-07-06T06:02:53;25.20;94.20
18101;DHT22;9177;49.156;8.142;2022-07-06T06:05:21;25.20;94.20
18101;DHT22;9177;49.156;8.142;2022-07-06T06:07:51;25.20;94.20
18101;DHT22;9177;49.156;8.142;2022-07-06T06:10:20;25.20;94.20
18101;DHT22;9177;49.156;8.142;2022-07-06T06:12:49;25.20;94.20
18101;DHT22;9177;49.156;8.142;2022-07-06T06:15:17;25.20;94.20
18101;DHT22;9177;49.156;8.142;2022-07-06T06:17:46;25.20;94.20
18101;DHT22;9177;49.156;8.142;2022-07-06T06:20:14;25.20;94.20
18101;DHT22;9177;49.156;8.142;2022-07-06T06:22:47;25.20;94.20
18101;DHT22;9177;49.156;8.142;2022-07-06T06:25:17;25.20;94.20
18101;DHT22;9177;49.156;8.142;2022-07-06T06:27:45;25.20;94.20
18101;DHT22;9177;49.156;8.142;2022-07-06T06:30:14;25.20;94.20
18101;DHT22;9177;49.156;8.142;2022-07-06T06:32:44;25.20;94.20
18101;DHT22;9177;49.156;8.142;2022-07-06T06:35:12;25.20;94.20
18101;DHT22;9177;49.156;8.142;2022-07-06T06:37:40;25.20;94.20
18101;DHT22;9177;49.156;8.142;2022-07-06T06:40:12;25.20;94.20
18101;DHT22;9177;49.156;8.142;2022-07-06T06:42:42;25.20;94.20
18101;DHT22;9177;49.156;8.142;2022-07-06T06:45:10;25.20;94.30
18101;DHT22;9177;49.156;8.142;2022-07-06T06:47:38;25.20;94.20
18101;DHT22;9177;49.156;8.142;2022-07-06T06:50:06;25.20;94.20
18101;DHT22;9177;49.156;8.142;2022-07-06T06:52:34;25.20;94.30
18101;DHT22;9177;49.156;8.142;2022-07-06T06:55:08;25.20;94.30
18101;DHT22;9177;49.156;8.142;2022-07-06T06:57:36;25.20;94.30
18101;DHT22;9177;49.156;8.142;2022-07-06T07:00:06;25.20;94.30
18101;DHT22;9177;49.156;8.142;2022-07-06T07:02:34;25.20;94.30
18101;DHT22;9177;49.156;8.142;2022-07-06T07:05:03;25.20;94.30
18101;DHT22;9177;49.156;8.142;2022-07-06T07:07:31;25.20;94.30
18101;DHT22;9177;49.156;8.142;2022-07-06T07:10:00;25.20;94.30
18101;DHT22;9177;49.156;8.142;2022-07-06T07:12:29;25.20;94.30
18101;DHT22;9177;49.156;8.142;2022-07-06T07:14:57;25.20;94.30
18101;DHT22;9177;49.156;8.142;2022-07-06T07:17:26;25.20;94.30
18101;DHT22;9177;49.156;8.142;2022-07-06T07:19:53;25.20;94.20
18101;DHT22;9177;49.156;8.142;2022-07-06T07:22:23;25.20;94.30
18101;DHT22;9177;49.156;8.142;2022-07-06T07:24:51;25.20;94.20
18101;DHT22;9177;49.156;8.142;2022-07-06T07:27:19;25.20;94.20
18101;DHT22;9177;49.156;8.142;2022-07-06T07:29:54;25.20;94.20
18101;DHT22;9177;49.156;8.142;2022-07-06T07:32:21;25.20;94.20
18101;DHT22;9177;49.156;8.142;2022-07-06T07:34:52;25.30;94.20
18101;DHT22;9177;49.156;8.142;2022-07-06T07:37:19;25.30;94.10
18101;DHT22;9177;49.156;8.142;2022-07-06T07:39:47;25.30;94.10
18101;DHT22;9177;49.156;8.142;2022-07-06T07:42:14;25.30;94.10
18101;DHT22;9177;49.156;8.142;2022-07-06T07:44:42;25.40;94.10
18101;DHT22;9177;49.156;8.142;2022-07-06T07:47:10;25.40;94.10
18101;DHT22;9177;49.156;8.142;2022-07-06T07:49:38;25.40;94.00
18101;DHT22;9177;49.156;8.142;2022-07-06T07:52:07;25.40;94.00
18101;DHT22;9177;49.156;8.142;2022-07-06T07:54:34;25.40;94.00
18101;DHT22;9177;49.156;8.142;2022-07-06T07:57:03;25.40;94.00
18101;DHT22;9177;49.156;8.142;2022-07-06T07:59:30;25.40;94.00
18101;DHT22;9177;49.156;8.142;2022-07-06T08:01:58;25.40;94.00
18101;DHT22;9177;49.156;8.142;2022-07-06T08:04:26;25.50;94.00
18101;DHT22;9177;49.156;8.142;2022-07-06T08:06:54;25.50;94.00
18101;DHT22;9177;49.156;8.142;2022-07-06T08:09:23;25.50;94.00
18101;DHT22;9177;49.156;8.142;2022-07-06T08:11:51;25.60;94.00
18101;DHT22;9177;49.156;8.142;2022-07-06T08:14:19;25.50;94.00
18101;DHT22;9177;49.156;8.142;2022-07-06T08:16:47;25.60;94.00
18101;DHT22;9177;49.156;8.142;2022-07-06T08:19:14;25.60;93.90
18101;DHT22;9177;49.156;8.142;2022-07-06T08:21:43;25.60;93.90
18101;DHT22;9177;49.156;8.142;2022-07-06T08:24:11;25.60;93.90
18101;DHT22;9177;49.156;8.142;2022-07-06T08:26:40;25.70;93.90
18101;DHT22;9177;49.156;8.142;2022-07-06T08:29:08;25.70;93.90
18101;DHT22;9177;49.156;8.142;2022-07-06T08:31:36;25.70;93.90
18101;DHT22;9177;49.156;8.142;2022-07-06T08:34:04;25.70;93.90
18101;DHT22;9177;49.156;8.142;2022-07-06T08:36:32;25.70;93.90
18101;DHT22;9177;49.156;8.142;2022-07-06T08:39:00;25.60;93.90
18101;DHT22;9177;49.156;8.142;2022-07-06T08:41:29;25.60;93.90
18101;DHT22;9177;49.156;8.142;2022-07-06T08:43:59;25.60;94.00
18101;DHT22;9177;49.156;8.142;2022-07-06T08:46:28;25.50;94.00
18101;DHT22;9177;49.156;8.142;2022-07-06T08:48:56;25.50;94.00
18101;DHT22;9177;49.156;8.142;2022-07-06T08:51:24;25.50;94.00
18101;DHT22;9177;49.156;8.142;2022-07-06T08:53:57;25.50;94.00
18101;DHT22;9177;49.156;8.142;2022-07-06T08:56:33;25.50;94.00
18101;DHT22;9177;49.156;8.142;2022-07-06T08:59:02;25.50;93.90
18101;DHT22;9177;49.156;8.142;2022-07-06T09:01:30;25.50;93.80
18101;DHT22;9177;49.156;8.142;2022-07-06T09:03:58;25.50;94.00
18101;DHT22;9177;49.156;8.142;2022-07-06T09:06:27;25.50;94.10
18101;DHT22;9177;49.156;8.142;2022-07-06T09:08:57;25.40;94.10
18101;DHT22;9177;49.156;8.142;2022-07-06T09:11:26;25.40;94.00
18101;DHT22;9177;49.156;8.142;2022-07-06T09:16:52;25.40;93.90
18101;DHT22;9177;49.156;8.142;2022-07-06T09:19:20;25.40;93.80
18101;DHT22;9177;49.156;8.142;2022-07-06T09:21:48;25.40;93.80
18101;DHT22;9177;49.156;8.142;2022-07-06T09:24:16;25.40;93.90
18101;DHT22;9177;49.156;8.142;2022-07-06T09:26:47;25.40;93.90
18101;DHT22;9177;49.156;8.142;2022-07-06T09:29:15;25.40;94.30
18101;DHT22;9177;49.156;8.142;2022-07-06T09:31:45;25.40;94.10
18101;DHT22;9177;49.156;8.142;2022-07-06T09:34:24;25.40;94.10
18101;DHT22;9177;49.156;8.142;2022-07-06T09:36:53;25.40;94.10
18101;DHT22;9177;49.156;8.142;2022-07-06T09:39:22;25.40;94.10
18101;DHT22;9177;49.156;8.142;2022-07-06T09:41:52;25.40;94.00
18101;DHT22;9177;49.156;8.142;2022-07-06T09:44:24;25.40;94.10
18101;DHT22;9177;49.156;8.142;2022-07-06T09:46:53;25.40;94.10
18101;DHT22;9177;49.156;8.142;2022-07-06T09:49:24;25.40;94.10
18101;DHT22;9177;49.156;8.142;2022-07-06T09:51:54;25.40;94.20
18101;DHT22;9177;49.156;8.142;2022-07-06T09:54:22;25.40;94.20
18101;DHT22;9177;49.156;8.142;2022-07-06T09:56:51;25.40;94.30
18101;DHT22;9177;49.156;8.142;2022-07-06T09:59:20;25.40;94.30
18101;DHT22;9177;49.156;8.142;2022-07-06T10:01:54;25.40;94.30
18101;DHT22;9177;49.156;8.142;2022-07-06T10:04:25;25.40;94.30
18101;DHT22;9177;49.156;8.142;2022-07-06T10:06:58;25.40;94.30
18101;DHT22;9177;49.156;8.142;2022-07-06T10:09:27;25.40;94.40
18101;DHT22;9177;49.156;8.142;2022-07-06T10:11:56;25.40;94.40
18101;DHT22;9177;49.156;8.142;2022-07-06T10:14:25;25.40;94.40
18101;DHT22;9177;49.156;8.142;2022-07-06T10:16:55;25.40;94.40
18101;DHT22;9177;49.156;8.142;2022-07-06T10:19:26;25.40;94.40
18101;DHT22;9177;49.156;8.142;2022-07-06T10:21:54;25.40;94.40
18101;DHT22;9177;49.156;8.142;2022-07-06T10:24:23;25.40;94.40
18101;DHT22;9177;49.156;8.142;2022-07-06T10:26:52;25.40;94.50
18101;DHT22;9177;49.156;8.142;2022-07-06T10:29:20;25.40;94.40
18101;DHT22;9177;49.156;8.142;2022-07-06T10:31:48;25.40;94.50
18101;DHT22;9177;49.156;8.142;2022-07-06T10:34:18;25.50;94.40
18101;DHT22;9177;49.156;8.142;2022-07-06T10:36:51;25.50;94.40
18101;DHT22;9177;49.156;8.142;2022-07-06T10:39:36;25.50;94.40
18101;DHT22;9177;49.156;8.142;2022-07-06T10:42:42;25.50;94.40
18101;DHT22;9177;49.156;8.142;2022-07-06T10:45:11;25.50;94.40
18101;DHT22;9177;49.156;8.142;2022-07-06T10:47:40;25.60;94.40
18101;DHT22;9177;49.156;8.142;2022-07-06T10:50:09;25.60;94.40
18101;DHT22;9177;49.156;8.142;2022-07-06T10:52:58;25.60;94.40
18101;DHT22;9177;49.156;8.142;2022-07-06T10:55:34;25.60;94.40
18101;DHT22;9177;49.156;8.142;2022-07-06T10:58:05;25.60;94.40
18101;DHT22;9177;49.156;8.142;2022-07-06T11:00:49;25.60;94.40
18101;DHT22;9177;49.156;8.142;2022-07-06T11:03:31;25.50;94.40
18101;DHT22;9177;49.156;8.142;2022-07-06T11:06:00;25.50;94.40
18101;DHT22;9177;49.156;8.142;2022-07-06T11:08:53;25.60;94.40
18101;DHT22;9177;49.156;8.142;2022-07-06T11:11:23;25.60;94.40
18101;DHT22;9177;49.156;8.142;2022-07-06T11:13:56;25.60;94.40
18101;DHT22;9177;49.156;8.142;2022-07-06T11:16:25;25.60;94.40
18101;DHT22;9177;49.156;8.142;2022-07-06T11:19:07;25.60;94.40
18101;DHT22;9177;49.156;8.142;2022-07-06T11:21:38;25.60;94.40
18101;DHT22;9177;49.156;8.142;2022-07-06T11:24:09;25.60;94.30
18101;DHT22;9177;49.156;8.142;2022-07-06T11:26:37;25.60;94.40
18101;DHT22;9177;49.156;8.142;2022-07-06T11:29:08;25.60;94.30
18101;DHT22;9177;49.156;8.142;2022-07-06T11:31:37;25.60;94.30
18101;DHT22;9177;49.156;8.142;2022-07-06T11:34:06;25.70;94.40
18101;DHT22;9177;49.156;8.142;2022-07-06T11:36:35;25.70;94.30
18101;DHT22;9177;49.156;8.142;2022-07-06T11:39:04;25.70;94.40
18101;DHT22;9177;49.156;8.142;2022-07-06T11:41:35;25.70;94.40
18101;DHT22;9177;49.156;8.142;2022-07-06T11:44:04;25.70;94.30
18101;DHT22;9177;49.156;8.142;2022-07-06T11:46:32;25.70;94.30
18101;DHT22;9177;49.156;8.142;2022-07-06T11:49:02;25.70;94.40
18101;DHT22;9177;49.156;8.142;2022-07-06T11:51:35;25.70;94.40
18101;DHT22;9177;49.156;8.142;2022-07-06T11:54:08;25.70;94.40
18101;DHT22;9177;49.156;8.142;2022-07-06T11:56:39;25.70;94.60
18101;DHT22;9177;49.156;8.142;2022-07-06T11:59:12;25.70;94.60
18101;DHT22;9177;49.156;8.142;2022-07-06T12:01:41;25.70;94.50
18101;DHT22;9177;49.156;8.142;2022-07-06T12:04:11;25.70;94.60
18101;DHT22;9177;49.156;8.142;2022-07-06T12:06:38;25.70;94.50
18101;DHT22;9177;49.156;8.142;2022-07-06T12:09:06;25.80;94.60
18101;DHT22;9177;49.156;8.142;2022-07-06T12:11:35;25.80;94.50
18101;DHT22;9177;49.156;8.142;2022-07-06T12:14:14;25.90;94.60
18101;DHT22;9177;49.156;8.142;2022-07-06T12:16:43;25.80;94.50
18101;DHT22;9177;49.156;8.142;2022-07-06T12:19:11;25.80;94.50
18101;DHT22;9177;49.156;8.142;2022-07-06T12:21:43;25.90;94.60
18101;DHT22;9177;49.156;8.142;2022-07-06T12:24:20;25.90;94.50
18101;DHT22;9177;49.156;8.142;2022-07-06T12:26:49;26.00;94.50
18101;DHT22;9177;49.156;8.142;2022-07-06T12:29:19;26.00;94.50
18101;DHT22;9177;49.156;8.142;2022-07-06T12:31:49;26.00;94.40
18101;DHT22;9177;49.156;8.142;2022-07-06T12:34:19;26.00;94.30
18101;DHT22;9177;49.156;8.142;2022-07-06T12:36:48;26.10;94.30
18101;DHT22;9177;49.156;8.142;2022-07-06T12:39:17;26.10;94.30
18101;DHT22;9177;49.156;8.142;2022-07-06T12:41:47;26.20;94.30
18101;DHT22;9177;49.156;8.142;2022-07-06T12:44:18;26.20;94.30
18101;DHT22;9177;49.156;8.142;2022-07-06T12:46:47;26.20;94.20
18101;DHT22;9177;49.156;8.142;2022-07-06T12:49:18;26.20;94.20
18101;DHT22;9177;49.156;8.142;2022-07-06T12:51:51;26.30;94.20
18101;DHT22;9177;49.156;8.142;2022-07-06T12:54:19;26.30;94.20
18101;DHT22;9177;49.156;8.142;2022-07-06T12:59:42;26.30;94.20
18101;DHT22;9177;49.156;8.142;2022-07-06T13:02:19;26.30;94.20
18101;DHT22;9177;49.156;8.142;2022-07-06T13:05:03;26.40;94.10
18101;DHT22;9177;49.156;8.142;2022-07-06T13:07:33;26.40;94.10
18101;DHT22;9177;49.156;8.142;2022-07-06T13:10:04;26.50;94.10
18101;DHT22;9177;49.156;8.142;2022-07-06T13:12:32;26.50;94.10
18101;DHT22;9177;49.156;8.142;2022-07-06T13:15:01;26.50;94.10
18101;DHT22;9177;49.156;8.142;2022-07-06T13:17:29;26.50;94.10
18101;DHT22;9177;49.156;8.142;2022-07-06T13:19:56;26.60;94.10
18101;DHT22;9177;49.156;8.142;2022-07-06T13:22:24;26.50;94.00
18101;DHT22;9177;49.156;8.142;2022-07-06T13:24:52;26.60;94.00
18101;DHT22;9177;49.156;8.142;2022-07-06T13:27:20;26.60;94.00
18101;DHT22;9177;49.156;8.142;2022-07-06T13:29:47;26.60;94.00
18101;DHT22;9177;49.156;8.142;2022-07-06T13:32:16;26.50;94.00
18101;DHT22;9177;49.156;8.142;2022-07-06T13:34:44;26.50;94.00
18101;DHT22;9177;49.156;8.142;2022-07-06T13:37:12;26.50;94.00
18101;DHT22;9177;49.156;8.142;2022-07-06T13:39:40;26.50;94.00
18101;DHT22;9177;49.156;8.142;2022-07-06T13:42:08;26.50;94.00
18101;DHT22;9177;49.156;8.142;2022-07-06T13:44:36;26.50;94.00
18101;DHT22;9177;49.156;8.142;2022-07-06T13:47:04;26.50;94.00
18101;DHT22;9177;49.156;8.142;2022-07-06T13:49:33;26.50;94.00
18101;DHT22;9177;49.156;8.142;2022-07-06T13:52:01;26.50;94.00
18101;DHT22;9177;49.156;8.142;2022-07-06T13:54:29;26.40;94.00
18101;DHT22;9177;49.156;8.142;2022-07-06T13:56:57;26.50;94.00
18101;DHT22;9177;49.156;8.142;2022-07-06T13:59:25;26.40;94.00
18101;DHT22;9177;49.156;8.142;2022-07-06T14:01:53;26.40;94.00
18101;DHT22;9177;49.156;8.142;2022-07-06T14:04:20;26.40;94.00
18101;DHT22;9177;49.156;8.142;2022-07-06T14:06:49;26.40;94.40
18101;DHT22;9177;49.156;8.142;2022-07-06T14:09:17;26.40;94.10
18101;DHT22;9177;49.156;8.142;2022-07-06T14:11:44;26.40;94.10
18101;DHT22;9177;49.156;8.142;2022-07-06T14:14:12;26.40;94.10
18101;DHT22;9177;49.156;8.142;2022-07-06T14:16:41;26.40;94.10
18101;DHT22;9177;49.156;8.142;2022-07-06T14:19:08;26.30;94.10
18101;DHT22;9177;49.156;8.142;2022-07-06T14:21:36;26.30;94.10
18101;DHT22;9177;49.156;8.142;2022-07-06T14:24:06;26.30;94.20
18101;DHT22;9177;49.156;8.142;2022-07-06T14:26:34;26.30;94.20
18101;DHT22;9177;49.156;8.142;2022-07-06T14:29:02;26.20;94.20
18101;DHT22;9177;49.156;8.142;2022-07-06T14:31:29;26.20;94.20
18101;DHT22;9177;49.156;8.142;2022-07-06T14:33:57;26.20;94.20
18101;DHT22;9177;49.156;8.142;2022-07-06T14:36:25;26.20;94.20
18101;DHT22;9177;49.156;8.142;2022-07-06T14:38:53;26.10;94.20
18101;DHT22;9177;49.156;8.142;2022-07-06T14:41:22;26.10;94.30
18101;DHT22;9177;49.156;8.142;2022-07-06T14:43:52;26.10;94.20
18101;DHT22;9177;49.156;8.142;2022-07-06T14:46:20;26.10;94.30
18101;DHT22;9177;49.156;8.142;2022-07-06T14:48:47;26.00;94.20
18101;DHT22;9177;49.156;8.142;2022-07-06T14:51:15;26.00;94.30
18101;DHT22;9177;49.156;8.142;2022-07-06T14:53:43;26.00;94.20
18101;DHT22;9177;49.156;8.142;2022-07-06T14:56:10;25.90;94.20
18101;DHT22;9177;49.156;8.142;2022-07-06T14:58:40;25.90;94.20
18101;DHT22;9177;49.156;8.142;2022-07-06T15:01:07;25.90;94.20
18101;DHT22;9177;49.156;8.142;2022-07-06T15:03:35;25.90;94.20
18101;DHT22;9177;49.156;8.142;2022-07-06T15:06:03;25.90;94.20
18101;DHT22;9177;49.156;8.142;2022-07-06T15:08:31;25.80;94.20
18101;DHT22;9177;49.156;8.142;2022-07-06T15:10:58;25.80;94.20
18101;DHT22;9177;49.156;8.142;2022-07-06T15:13:26;25.80;94.20
18101;DHT22;9177;49.156;8.142;2022-07-06T15:15:55;25.80;94.20
18101;DHT22;9177;49.156;8.142;2022-07-06T15:18:23;25.80;94.20
18101;DHT22;9177;49.156;8.142;2022-07-06T15:20:51;25.80;94.20
18101;DHT22;9177;49.156;8.142;2022-07-06T15:23:19;25.80;94.20
18101;DHT22;9177;49.156;8.142;2022-07-06T15:25:47;25.80;94.20
18101;DHT22;9177;49.156;8.142;2022-07-06T15:28:14;25.80;94.20
18101;DHT22;9177;49.156;8.142;2022-07-06T15:30:42;25.80;94.20
18101;DHT22;9177;49.156;8.142;2022-07-06T15:33:11;25.80;94.20
18101;DHT22;9177;49.156;8.142;2022-07-06T15:35:38;25.80;94.20
18101;DHT22;9177;49.156;8.142;2022-07-06T15:38:06;25.80;94.20
18101;DHT22;9177;49.156;8.142;2022-07-06T15:40:34;25.80;94.20
18101;DHT22;9177;49.156;8.142;2022-07-06T15:43:06;25.80;94.50
18101;DHT22;9177;49.156;8.142;2022-07-06T15:45:34;25.70;94.10
18101;DHT22;9177;49.156;8.142;2022-07-06T15:48:03;25.70;94.10
18101;DHT22;9177;49.156;8.142;2022-07-06T15:50:33;25.70;94.10
18101;DHT22;9177;49.156;8.142;2022-07-06T15:53:01;25.70;94.10
18101;DHT22;9177;49.156;8.142;2022-07-06T15:55:29;25.70;94.10
18101;DHT22;9177;49.156;8.142;2022-07-06T15:57:56;25.70;94.00
18101;DHT22;9177;49.156;8.142;2022-07-06T16:00:25;25.70;94.10
18101;DHT22;9177;49.156;8.142;2022-07-06T16:02:53;25.70;94.00
18101;DHT22;9177;49.156;8.142;2022-07-06T16:05:21;25.70;94.00